Weather reports worldwide

Advertisment
Cairngorm, United Kingdom (3065): temperature & dewpoint: 25.10.2020 04:00:00 - 31.10.2020 04:00:00 (GMT)Cairngorm, United Kingdom (3065): wind speed & gusts: 25.10.2020 04:00:00 - 31.10.2020 04:00:00 (GMT)Cairngorm, United Kingdom (3065): wind direction: 25.10.2020 04:00:00 - 31.10.2020 04:00:00 (GMT)
Date & Time tt [°C] td [°C] ff [km/h] ff [kn] fx [km/h] fx [kn] dd
31.10.2020 04:00:00 -1,8 -1,8 100 54 126 68 SSE
31.10.2020 03:00:00 -1,7 -1,7 65 35 72 39 SSE
31.10.2020 02:00:00 -1,4 -1,4 61 33 81 44 SSE
31.10.2020 01:00:00 -1,1 -1,1 35 19 52 28 S
31.10.2020 00:00:00 -1,1 -1,1 28 15 - - S
30.10.2020 23:00:00 -1,7 -1,7 26 14 48 26 S
30.10.2020 22:00:00 -1,6 -1,6 35 19 57 31 SSW
30.10.2020 21:00:00 -1,5 -1,5 50 27 70 38 SW
30.10.2020 20:00:00 -1,2 -1,2 41 22 59 32 WSW
30.10.2020 19:00:00 -0,9 -0,9 44 24 68 37 WSW
30.10.2020 18:00:00 -0,8 -0,8 41 22 67 36 WSW
30.10.2020 17:00:00 -1,3 -1,3 42 23 74 40 W
30.10.2020 16:00:00 -1,2 -1,2 50 27 89 48 W
30.10.2020 15:00:00 -1,0 -1,0 57 31 89 48 W
30.10.2020 14:00:00 -0,7 -0,7 59 32 83 45 W
30.10.2020 13:00:00 -0,7 -0,7 59 32 91 49 W
30.10.2020 12:00:00 -0,5 -0,6 57 31 104 56 W
30.10.2020 11:00:00 -0,8 -0,8 63 34 98 53 W
30.10.2020 10:00:00 -0,8 -0,9 72 39 106 57 W
30.10.2020 09:00:00 -0,6 -0,6 78 42 107 58 W
30.10.2020 08:00:00 0,6 0,6 78 42 104 56 W
30.10.2020 07:00:00 1,7 1,7 67 36 109 59 W
30.10.2020 06:00:00 2,0 2,0 78 42 130 70 W
30.10.2020 05:00:00 2,9 2,9 91 49 115 62 W
30.10.2020 04:00:00 4,4 4,3 83 45 122 66 W
30.10.2020 03:00:00 5,6 5,6 98 53 124 67 WSW
30.10.2020 02:00:00 6,2 6,2 83 45 122 66 SW
30.10.2020 01:00:00 6,5 6,5 74 40 117 63 SW
30.10.2020 00:00:00 6,9 6,9 65 35 115 62 SW
29.10.2020 23:00:00 6,7 6,6 76 41 111 60 SSW
29.10.2020 22:00:00 6,4 6,4 80 43 117 63 SSW
29.10.2020 21:00:00 5,8 5,7 74 40 98 53 SSW
29.10.2020 20:00:00 5,2 5,2 65 35 83 45 SSW
29.10.2020 19:00:00 4,3 4,3 59 32 70 38 SSW
29.10.2020 18:00:00 3,1 3,1 55 30 65 35 SSW
29.10.2020 17:00:00 1,8 1,8 39 21 68 37 S
29.10.2020 16:00:00 1,0 1,0 48 26 67 36 SSE
29.10.2020 15:00:00 0,7 0,7 46 25 70 38 SSE
29.10.2020 14:00:00 1,3 1,2 48 26 68 37 S
29.10.2020 13:00:00 0,8 0,8 48 26 67 36 S
29.10.2020 12:00:00 0,2 0,2 42 23 68 37 S
29.10.2020 11:00:00 -0,8 -0,8 35 19 59 32 S
29.10.2020 10:00:00 -1,0 -1,0 46 25 59 32 S
29.10.2020 09:00:00 -1,1 -1,1 37 20 54 29 S
29.10.2020 08:00:00 -0,5 -0,5 44 24 63 34 SW
29.10.2020 07:00:00 -1,0 -1,0 50 27 83 45 WSW
29.10.2020 06:00:00 -1,2 -1,2 50 27 81 44 WSW
29.10.2020 05:00:00 -0,6 -0,6 54 29 87 47 W
29.10.2020 04:00:00 -0,4 -0,4 67 36 94 51 W
29.10.2020 03:00:00 -0,2 -0,2 57 31 87 47 W
29.10.2020 02:00:00 -0,3 -0,3 65 35 85 46 W
29.10.2020 01:00:00 -0,3 -0,3 55 30 87 47 W
29.10.2020 00:00:00 -0,6 -0,6 52 28 68 37 W
28.10.2020 23:00:00 -0,5 -0,5 48 26 76 41 SW
28.10.2020 22:00:00 -0,9 -1,0 54 29 80 43 SW
28.10.2020 21:00:00 -0,9 -0,9 59 32 91 49 SW
28.10.2020 20:00:00 -0,8 -0,8 70 38 100 54 WSW
28.10.2020 19:00:00 -0,9 -0,9 74 40 94 51 WSW
28.10.2020 18:00:00 -0,5 -0,5 55 30 85 46 WSW
28.10.2020 17:00:00 -0,5 -0,5 68 37 87 47 WSW
28.10.2020 16:00:00 -0,2 -0,2 61 33 87 47 SW
28.10.2020 15:00:00 0,0 0,0 59 32 96 52 SW
28.10.2020 14:00:00 0,0 0,0 65 35 89 48 SW
28.10.2020 13:00:00 0,1 0,0 44 24 89 48 SW
28.10.2020 12:00:00 0,0 0,0 48 26 87 47 SW
28.10.2020 11:00:00 -0,3 -0,3 61 33 93 50 SW
28.10.2020 10:00:00 -0,3 -0,3 67 36 87 47 SW
28.10.2020 09:00:00 -0,3 -0,3 70 38 94 51 SW
28.10.2020 08:00:00 0,0 -0,1 72 39 98 53 SW
28.10.2020 07:00:00 -0,6 -0,6 70 38 106 57 WSW
28.10.2020 06:00:00 -0,5 -0,5 72 39 102 55 SW
28.10.2020 05:00:00 -0,5 -0,5 80 43 106 57 SW
28.10.2020 04:00:00 -1,1 -1,1 78 42 96 52 SW
28.10.2020 03:00:00 -1,1 -1,1 67 36 91 49 SW
28.10.2020 02:00:00 -1,6 -1,6 63 34 91 49 WSW
28.10.2020 01:00:00 -1,7 -1,7 74 40 89 48 WSW
28.10.2020 00:00:00 -1,5 -1,5 55 30 87 47 WSW
27.10.2020 23:00:00 -1,3 -1,3 72 39 94 51 W
27.10.2020 22:00:00 -1,2 -1,2 72 39 89 48 W
27.10.2020 21:00:00 -1,8 -1,8 68 37 91 49 W
27.10.2020 20:00:00 -1,2 -1,2 61 33 76 41 W
27.10.2020 19:00:00 0,3 0,2 34 18 46 25 SW
27.10.2020 18:00:00 0,6 0,6 35 19 57 31 S
27.10.2020 17:00:00 0,2 0,2 52 28 67 36 SSE
27.10.2020 16:00:00 0,2 0,2 46 25 55 30 SSE
27.10.2020 15:00:00 0,6 0,6 34 18 68 37 SSE
27.10.2020 14:00:00 0,5 0,5 44 24 57 31 S
27.10.2020 13:00:00 0,1 0,0 - - 61 33 -
27.10.2020 12:00:00 -0,8 -0,8 44 24 63 34 S
27.10.2020 11:00:00 -0,2 -0,2 46 25 61 33 S
27.10.2020 10:00:00 -0,8 -0,8 41 22 52 28 S
27.10.2020 09:00:00 -1,2 -1,2 28 15 - - S
27.10.2020 08:00:00 -0,9 -0,9 24 13 - - SSW
27.10.2020 07:00:00 -0,9 -1,0 11 6 - - S
27.10.2020 06:00:00 -0,2 -0,2 18 10 - - SW
27.10.2020 05:00:00 0,0 0,0 29 16 - - W
27.10.2020 04:00:00 0,0 0,0 34 18 48 26 WNW
27.10.2020 03:00:00 0,4 0,4 39 21 52 28 W
27.10.2020 02:00:00 0,4 0,4 39 21 48 26 W
27.10.2020 01:00:00 0,7 0,7 41 22 46 25 WNW
27.10.2020 00:00:00 0,7 0,7 37 20 50 27 WNW
26.10.2020 23:00:00 0,8 0,7 42 23 52 28 WNW
26.10.2020 22:00:00 0,8 0,8 41 22 54 29 WNW
26.10.2020 21:00:00 0,9 0,9 42 23 63 34 NW
26.10.2020 20:00:00 1,0 1,0 46 25 59 32 NW
26.10.2020 19:00:00 1,0 1,0 46 25 59 32 NW
26.10.2020 18:00:00 1,0 1,0 48 26 61 33 NW
26.10.2020 17:00:00 1,1 1,1 48 26 68 37 WNW
26.10.2020 16:00:00 1,0 1,0 46 25 61 33 NW
26.10.2020 15:00:00 0,2 0,1 48 26 61 33 NW
26.10.2020 14:00:00 1,0 1,0 29 16 - - WNW
26.10.2020 13:00:00 1,0 1,0 31 17 - - W
26.10.2020 12:00:00 1,4 1,3 31 17 - - W
26.10.2020 11:00:00 1,3 1,3 24 13 - - W
26.10.2020 10:00:00 1,4 1,4 18 10 - - WSW
26.10.2020 09:00:00 0,5 0,4 28 15 - - SW
26.10.2020 08:00:00 0,5 0,5 31 17 46 25 SW
26.10.2020 07:00:00 0,5 0,5 35 19 52 28 S
26.10.2020 06:00:00 0,5 0,4 41 22 61 33 SSW
26.10.2020 05:00:00 0,5 0,5 46 25 68 37 SSW
26.10.2020 04:00:00 0,5 0,5 61 33 74 40 S
26.10.2020 03:00:00 0,5 0,4 61 33 83 45 S
26.10.2020 02:00:00 0,0 0,0 72 39 102 55 S
26.10.2020 01:00:00 0,1 0,1 81 44 106 57 S
26.10.2020 00:00:00 0,2 0,2 85 46 109 59 S
25.10.2020 23:00:00 0,0 0,0 93 50 109 59 S
25.10.2020 22:00:00 0,1 0,1 85 46 107 58 S
25.10.2020 21:00:00 0,2 0,1 91 49 109 59 S
25.10.2020 20:00:00 0,1 0,1 87 47 117 63 S
25.10.2020 19:00:00 0,1 0,0 85 46 115 62 S
25.10.2020 18:00:00 0,0 0,0 83 45 115 62 S
25.10.2020 17:00:00 0,0 0,0 85 46 117 63 SSW
25.10.2020 16:00:00 0,0 0,0 81 44 106 57 S
25.10.2020 15:00:00 0,0 0,0 72 39 104 56 SSW
25.10.2020 14:00:00 0,0 0,0 76 41 104 56 S
25.10.2020 13:00:00 -0,3 -0,3 83 45 107 58 S
25.10.2020 12:00:00 -0,8 -0,8 78 42 100 54 SSW
25.10.2020 11:00:00 -0,7 -0,7 72 39 106 57 S
25.10.2020 10:00:00 -0,8 -0,8 81 44 113 61 S
25.10.2020 09:00:00 -0,8 -0,8 80 43 106 57 S
25.10.2020 08:00:00 -0,9 -0,9 85 46 111 60 S
25.10.2020 07:00:00 -0,5 -0,5 89 48 107 58 S
25.10.2020 06:00:00 -0,9 -0,9 94 51 113 61 S
25.10.2020 05:00:00 -0,4 -0,4 87 47 111 60 S
25.10.2020 04:00:00 -0,3 -0,3 87 47 111 60 S

tt = temperature
td = dewpoint
ff = wind speed
fx = gusts
dd = wind direction

Next stations